createdAt,value
2019-02-06T00:00:41.786Z,22.48
2019-02-06T00:03:22.839Z,20.27
2019-02-06T00:06:03.899Z,18.02
2019-02-06T00:08:44.454Z,18.80
2019-02-06T00:11:25.304Z,23.07
2019-02-06T00:14:05.998Z,24.18
2019-02-06T00:16:46.648Z,19.87
2019-02-06T00:19:27.047Z,17.37
2019-02-06T00:22:08.004Z,17.20
2019-02-06T00:24:48.811Z,16.85
2019-02-06T00:27:29.391Z,18.50
2019-02-06T00:30:10.115Z,18.15
2019-02-06T00:32:50.818Z,16.15
2019-02-06T00:35:31.387Z,14.55
2019-02-06T00:38:12.017Z,18.42
2019-02-06T00:46:35.658Z,18.60
2019-02-06T00:54:52.991Z,16.37
2019-02-06T01:00:20.368Z,19.17
2019-02-06T01:33:40.583Z,24.00
2019-02-06T01:36:21.205Z,17.80
2019-02-06T01:39:01.983Z,23.15
2019-02-06T01:41:42.519Z,17.12
2019-02-06T01:44:23.094Z,22.10
2019-02-06T01:47:03.394Z,20.20
2019-02-06T01:49:44.817Z,19.50
2019-02-06T01:52:25.438Z,18.50
2019-02-06T01:55:06.878Z,17.40
2019-02-06T01:57:47.942Z,16.85
2019-02-06T02:00:28.594Z,20.68
2019-02-06T02:03:09.165Z,17.12
2019-02-06T02:06:01.425Z,24.05
2019-02-06T02:08:34.038Z,21.20
2019-02-06T02:11:14.785Z,19.05
2019-02-06T02:13:55.371Z,18.55
2019-02-06T02:16:36.270Z,17.20
2019-02-06T02:19:17.930Z,17.95
2019-02-06T02:21:59.071Z,17.75
2019-02-06T02:24:39.574Z,18.23
2019-02-06T02:27:20.600Z,22.67
2019-02-06T02:30:01.813Z,20.40
2019-02-06T02:32:42.378Z,21.60
2019-02-06T02:35:23.248Z,19.77
2019-02-06T02:38:04.135Z,21.45
2019-02-06T02:40:44.410Z,18.32
2019-02-06T02:43:25.272Z,20.92
2019-02-06T02:46:06.179Z,22.32
2019-02-06T02:48:46.594Z,21.87
2019-02-06T02:51:27.378Z,18.42
2019-02-06T02:54:08.063Z,20.60
2019-02-06T02:56:49.095Z,22.55
2019-02-06T02:59:30.420Z,21.70
2019-02-06T03:05:26.518Z,19.77
2019-02-06T03:08:06.910Z,23.42
2019-02-06T03:10:47.658Z,17.52
2019-02-06T03:13:28.467Z,17.98
2019-02-06T03:16:09.183Z,19.52
2019-02-06T03:18:49.813Z,26.52
2019-02-06T03:21:30.879Z,17.35
2019-02-06T03:24:11.727Z,19.50
2019-02-06T03:26:52.070Z,17.95
2019-02-06T03:29:32.812Z,18.45
2019-02-06T03:32:13.548Z,18.35
2019-02-06T03:34:54.056Z,20.68
2019-02-06T03:37:34.905Z,17.92
2019-02-06T03:40:15.339Z,20.97
2019-02-06T03:42:56.143Z,16.85
2019-02-06T03:45:36.807Z,17.95
2019-02-06T03:48:17.999Z,20.60
2019-02-06T03:50:58.803Z,25.75
2019-02-06T03:53:39.229Z,22.35
2019-02-06T03:56:19.862Z,16.95
2019-02-06T03:59:01.394Z,26.82
2019-02-06T04:01:42.753Z,24.70
2019-02-06T04:04:24.147Z,21.77
2019-02-06T04:07:03.074Z,22.27
2019-02-06T04:09:51.335Z,20.05
2019-02-06T04:12:39.178Z,21.23
2019-02-06T04:15:20.208Z,18.20
2019-02-06T04:18:00.463Z,17.95
2019-02-06T04:20:40.983Z,20.77
2019-02-06T04:23:21.767Z,19.25
2019-02-06T04:26:02.527Z,22.98
2019-02-06T04:28:42.850Z,21.55
2019-02-06T04:31:23.655Z,18.23
2019-02-06T04:34:04.397Z,25.05
2019-02-06T04:36:45.552Z,25.82
2019-02-06T04:42:10.020Z,23.22
2019-02-06T04:47:33.096Z,22.85
2019-02-06T04:50:16.923Z,19.52
2019-02-06T04:55:43.182Z,22.45
2019-02-06T05:00:58.090Z,20.80
2019-02-06T05:03:26.975Z,22.42
2019-02-06T05:05:55.867Z,21.30
2019-02-06T05:08:24.418Z,21.85
2019-02-06T05:10:53.387Z,20.85
2019-02-06T05:13:22.335Z,20.30
2019-02-06T05:15:50.912Z,23.00
2019-02-06T05:18:19.811Z,22.85
2019-02-06T05:20:48.790Z,24.85
2019-02-06T05:23:17.696Z,20.08
2019-02-06T05:25:46.599Z,23.20
2019-02-06T05:28:18.038Z,27.27
2019-02-06T05:30:45.474Z,20.77
2019-02-06T05:33:14.054Z,18.95
2019-02-06T05:35:42.874Z,23.80
2019-02-06T05:38:11.431Z,22.10
2019-02-06T05:40:40.341Z,23.90
2019-02-06T05:43:09.235Z,26.02
2019-02-06T05:45:37.801Z,21.82
2019-02-06T05:48:06.728Z,22.75
2019-02-06T05:50:35.276Z,20.10
2019-02-06T05:53:04.201Z,20.00
2019-02-06T05:55:33.771Z,21.25
2019-02-06T05:58:02.990Z,25.50
2019-02-06T06:00:35.880Z,24.35
2019-02-06T06:03:04.451Z,20.05
2019-02-06T06:05:33.065Z,22.22
2019-02-06T06:08:02.045Z,21.73
2019-02-06T06:10:30.608Z,16.87
2019-02-06T06:12:59.513Z,27.85
2019-02-06T06:15:28.399Z,21.27
2019-02-06T06:17:56.966Z,22.65
2019-02-06T06:20:25.928Z,20.40
2019-02-06T06:22:54.874Z,20.90
2019-02-06T06:25:23.762Z,22.67
2019-02-06T06:27:52.323Z,19.90
2019-02-06T06:30:20.930Z,24.35
2019-02-06T06:32:49.819Z,20.55
2019-02-06T06:35:18.390Z,23.05
2019-02-06T06:37:57.683Z,22.13
2019-02-06T06:40:19.669Z,22.32
2019-02-06T06:42:48.972Z,23.50
2019-02-06T06:45:19.116Z,22.15
2019-02-06T06:47:47.745Z,20.27
2019-02-06T06:50:18.858Z,22.02
2019-02-06T06:52:47.475Z,22.65
2019-02-06T06:55:16.194Z,22.87
2019-02-06T06:57:45.160Z,21.77
2019-02-06T07:00:25.660Z,21.05
2019-02-06T07:02:54.427Z,20.57
2019-02-06T07:05:23.746Z,24.77
2019-02-06T07:07:52.719Z,22.35
2019-02-06T07:10:21.587Z,19.42
2019-02-06T07:12:50.163Z,20.15
2019-02-06T07:15:21.202Z,28.62
2019-02-06T07:17:49.782Z,30.25
2019-02-06T07:20:18.651Z,30.75
2019-02-06T07:22:47.610Z,25.37
2019-02-06T07:25:17.358Z,27.73
2019-02-06T07:27:45.965Z,25.90
2019-02-06T07:30:18.179Z,25.12
2019-02-06T07:32:46.714Z,24.65
2019-02-06T07:35:15.972Z,25.65
2019-02-06T07:37:44.753Z,26.95
2019-02-06T07:40:14.018Z,30.45
2019-02-06T07:42:42.595Z,26.65
2019-02-06T07:45:11.254Z,23.30
2019-02-06T07:47:40.199Z,23.65
2019-02-06T07:50:12.999Z,22.67
2019-02-06T07:52:41.779Z,23.20
2019-02-06T07:55:10.331Z,23.25
2019-02-06T07:57:38.913Z,24.52
2019-02-06T08:00:07.745Z,21.80
2019-02-06T08:02:36.586Z,26.35
2019-02-06T08:05:06.134Z,25.62
2019-02-06T08:07:34.690Z,23.45
2019-02-06T08:10:03.504Z,26.87
2019-02-06T08:12:32.638Z,25.05
2019-02-06T08:15:01.530Z,23.00
2019-02-06T08:17:30.158Z,23.65
2019-02-06T08:19:59.300Z,65.28
2019-02-06T08:22:27.939Z,19.37
2019-02-06T08:24:56.940Z,25.00
2019-02-06T08:27:26.360Z,27.07
2019-02-06T08:29:55.218Z,32.60
2019-02-06T08:32:23.791Z,36.95
2019-02-06T08:34:52.761Z,25.90
2019-02-06T08:37:21.367Z,24.70
2019-02-06T08:39:50.298Z,29.67
2019-02-06T08:42:19.079Z,30.15
2019-02-06T08:44:47.843Z,22.02
2019-02-06T08:47:16.738Z,34.40
2019-02-06T08:49:45.653Z,31.80
2019-02-06T08:52:14.506Z,35.83
2019-02-06T08:54:43.090Z,32.98
2019-02-06T08:57:11.722Z,32.65
2019-02-06T08:59:40.571Z,34.48
2019-02-06T09:02:09.099Z,32.33
2019-02-06T09:04:37.982Z,59.27
2019-02-06T09:07:06.874Z,36.30
2019-02-06T09:09:35.483Z,32.90
2019-02-06T09:12:04.106Z,33.25
2019-02-06T09:14:32.703Z,33.23
2019-02-06T09:17:01.597Z,30.08
2019-02-06T09:19:30.163Z,41.75
2019-02-06T09:21:59.090Z,34.45
2019-02-06T09:24:27.626Z,40.48
2019-02-06T09:26:56.239Z,36.65
2019-02-06T09:29:24.810Z,36.38
2019-02-06T09:31:53.906Z,38.00
2019-02-06T09:34:22.834Z,35.13
2019-02-06T09:36:51.725Z,38.13
2019-02-06T09:39:20.927Z,42.08
2019-02-06T09:41:49.823Z,39.35
2019-02-06T09:44:18.690Z,44.42
2019-02-06T09:46:47.270Z,39.00
2019-02-06T09:49:16.527Z,40.83
2019-02-06T09:51:45.131Z,43.40
2019-02-06T09:54:14.354Z,37.28
2019-02-06T09:56:43.262Z,41.63
2019-02-06T09:59:12.106Z,41.48
2019-02-06T10:01:40.709Z,41.18
2019-02-06T10:04:10.026Z,40.73
2019-02-06T10:06:38.606Z,42.15
2019-02-06T10:09:08.955Z,41.80
2019-02-06T10:11:37.498Z,41.88
2019-02-06T10:14:06.079Z,41.73
2019-02-06T10:16:35.174Z,42.95
2019-02-06T10:19:04.415Z,40.92
2019-02-06T10:21:32.955Z,39.55
2019-02-06T10:24:02.185Z,41.50
2019-02-06T10:26:30.735Z,43.58
2019-02-06T10:28:59.331Z,40.03
2019-02-06T10:31:27.903Z,41.33
2019-02-06T10:33:56.826Z,45.60
2019-02-06T10:36:26.087Z,43.17
2019-02-06T10:38:54.999Z,42.45
2019-02-06T10:41:23.908Z,47.20
2019-02-06T10:43:52.770Z,46.83
2019-02-06T10:46:21.350Z,43.25
2019-02-06T10:48:50.274Z,42.93
2019-02-06T10:51:18.822Z,45.38
2019-02-06T10:53:47.826Z,44.25
2019-02-06T10:56:17.051Z,48.75
2019-02-06T10:58:45.612Z,45.08
2019-02-06T11:01:33.446Z,47.73
2019-02-06T11:04:23.506Z,50.30
2019-02-06T11:07:11.343Z,51.30
2019-02-06T11:09:59.418Z,48.92
2019-02-06T11:12:47.519Z,46.18
2019-02-06T11:15:35.633Z,47.93
2019-02-06T11:18:23.811Z,47.65
2019-02-06T11:21:11.946Z,49.95
2019-02-06T11:24:01.510Z,49.85
2019-02-06T11:26:49.355Z,44.88
2019-02-06T11:29:37.194Z,49.18
2019-02-06T11:32:25.550Z,46.18
2019-02-06T11:35:13.415Z,49.30
2019-02-06T11:38:01.487Z,52.45
2019-02-06T11:40:49.662Z,51.08
2019-02-06T11:43:37.750Z,50.50
2019-02-06T11:46:25.586Z,47.78
2019-02-06T11:52:10.984Z,46.55
2019-02-06T11:54:53.211Z,50.85
2019-02-06T11:57:33.984Z,48.92
2019-02-06T12:00:16.106Z,55.20
2019-02-06T12:02:57.634Z,48.17
2019-02-06T12:05:37.976Z,46.18
2019-02-06T12:08:18.782Z,53.73
2019-02-06T12:10:59.617Z,49.67
2019-02-06T12:13:40.064Z,52.60
2019-02-06T12:16:20.795Z,45.80
2019-02-06T12:19:05.775Z,49.77
2019-02-06T12:21:46.615Z,54.50
2019-02-06T12:24:27.335Z,47.13
2019-02-06T12:27:08.608Z,53.05
2019-02-06T12:32:35.634Z,48.58
2019-02-06T12:35:17.019Z,54.25
2019-02-06T12:37:57.643Z,56.28
2019-02-06T12:43:25.035Z,53.13
2019-02-06T12:46:06.075Z,55.00
2019-02-06T12:54:25.507Z,53.52
2019-02-06T12:57:09.777Z,51.05
2019-02-06T13:16:36.155Z,52.30
2019-02-06T13:25:06.198Z,48.42
2019-02-06T13:27:54.379Z,46.77
2019-02-06T13:30:35.742Z,45.88
2019-02-06T13:36:07.474Z,46.37
2019-02-06T13:38:48.187Z,48.63
2019-02-06T13:41:29.136Z,50.00
2019-02-06T13:44:10.059Z,46.95
2019-02-06T13:46:53.317Z,43.60
2019-02-06T13:49:33.625Z,49.45
2019-02-06T13:52:14.867Z,47.67
2019-02-06T13:54:55.418Z,49.27
2019-02-06T13:57:35.994Z,52.53
2019-02-06T14:00:16.465Z,51.75
2019-02-06T14:02:57.182Z,44.67
2019-02-06T14:05:37.711Z,51.30
2019-02-06T14:08:18.143Z,52.65
2019-02-06T14:11:00.890Z,44.55
2019-02-06T14:13:41.346Z,51.42
2019-02-06T14:16:22.382Z,45.45
2019-02-06T14:19:03.836Z,49.13
2019-02-06T14:21:44.326Z,46.80
2019-02-06T14:24:25.495Z,48.10
2019-02-06T14:27:09.147Z,47.60
2019-02-06T14:30:16.305Z,44.88
2019-02-06T14:33:23.702Z,48.13
2019-02-06T14:36:31.111Z,46.30
2019-02-06T14:39:38.270Z,51.35
2019-02-06T14:42:29.063Z,46.05
2019-02-06T14:45:36.239Z,43.98
2019-02-06T14:48:43.421Z,54.63
2019-02-06T14:51:50.910Z,47.75
2019-02-06T14:54:32.124Z,48.83
2019-02-06T14:57:12.882Z,50.03
2019-02-06T14:59:53.719Z,47.93
2019-02-06T15:02:34.153Z,46.83
2019-02-06T15:05:14.783Z,49.80
2019-02-06T15:07:55.794Z,49.23
2019-02-06T15:10:36.920Z,49.38
2019-02-06T15:13:17.691Z,50.55
2019-02-06T15:15:58.481Z,50.65
2019-02-06T15:18:39.063Z,52.13
2019-02-06T15:21:20.600Z,49.00
2019-02-06T15:24:01.350Z,49.77
2019-02-06T15:26:42.520Z,45.98
2019-02-06T15:29:23.811Z,51.42
2019-02-06T15:32:05.151Z,57.05
2019-02-06T15:34:45.398Z,57.08
2019-02-06T15:37:26.187Z,55.45
2019-02-06T15:40:06.782Z,55.58
2019-02-06T15:42:48.024Z,44.48
2019-02-06T15:45:29.223Z,52.25
2019-02-06T15:48:10.899Z,54.90
2019-02-06T15:50:52.003Z,50.10
2019-02-06T15:53:32.914Z,51.00
2019-02-06T15:56:13.771Z,52.78
2019-02-06T16:01:36.589Z,48.45
2019-02-06T16:04:47.911Z,48.85
2019-02-06T16:07:55.316Z,52.40
2019-02-06T16:11:02.486Z,50.85
2019-02-06T16:14:05.195Z,55.60
2019-02-06T16:17:12.355Z,60.83
2019-02-06T16:20:19.794Z,51.63
2019-02-06T16:23:26.947Z,47.10
2019-02-06T16:26:34.147Z,50.03
2019-02-06T16:29:41.538Z,56.80
2019-02-06T16:32:48.944Z,57.08
2019-02-06T16:35:56.560Z,53.33
2019-02-06T16:38:52.378Z,55.83
2019-02-06T16:41:53.341Z,56.15
2019-02-06T16:44:42.510Z,52.55
2019-02-06T16:47:45.811Z,53.85
2019-02-06T16:53:11.327Z,51.73
2019-02-06T16:55:51.924Z,51.98
2019-02-06T16:58:35.073Z,53.87
2019-02-06T17:01:35.666Z,51.28
2019-02-06T17:04:49.188Z,58.83
2019-02-06T17:07:52.529Z,56.77
2019-02-06T17:10:44.974Z,48.68
2019-02-06T17:13:50.367Z,56.20
2019-02-06T17:16:55.082Z,53.75
2019-02-06T17:19:48.618Z,57.17
2019-02-06T17:22:33.801Z,54.73
2019-02-06T17:25:31.861Z,54.25
2019-02-06T17:28:57.578Z,60.88
2019-02-06T17:32:14.757Z,66.57
2019-02-06T17:35:10.023Z,59.88
2019-02-06T17:38:07.447Z,55.48
2019-02-06T17:41:06.922Z,51.98
2019-02-06T17:44:14.311Z,58.13
2019-02-06T17:47:20.522Z,54.98
2019-02-06T17:50:49.053Z,62.10
2019-02-06T17:53:22.861Z,59.27
2019-02-06T17:55:51.944Z,54.93
2019-02-06T17:58:21.139Z,61.02
2019-02-06T18:01:17.167Z,60.28
2019-02-06T18:04:04.526Z,68.00
2019-02-06T18:06:33.134Z,64.27
2019-02-06T18:09:02.006Z,61.98
2019-02-06T18:11:30.927Z,57.85
2019-02-06T18:13:59.519Z,57.78
2019-02-06T18:16:28.733Z,57.67
2019-02-06T18:18:57.944Z,61.23
2019-02-06T18:21:26.538Z,56.20
2019-02-06T18:23:55.078Z,60.43
2019-02-06T18:26:23.990Z,53.70
2019-02-06T18:28:52.808Z,56.60
2019-02-06T18:31:21.954Z,62.03
2019-02-06T18:33:50.885Z,67.97
2019-02-06T18:36:19.866Z,60.70
2019-02-06T18:38:49.513Z,63.28
2019-02-06T18:41:18.373Z,68.60
2019-02-06T18:43:47.258Z,68.55
2019-02-06T18:46:16.667Z,65.95
2019-02-06T18:48:45.906Z,68.62
2019-02-06T18:51:15.167Z,82.53
2019-02-06T18:53:44.242Z,81.85
2019-02-06T18:56:12.849Z,85.97
2019-02-06T18:58:41.735Z,84.35
2019-02-06T19:01:10.536Z,71.90
2019-02-06T19:03:42.389Z,70.45
2019-02-06T19:06:11.371Z,67.92
2019-02-06T19:08:40.323Z,63.73
2019-02-06T19:11:09.031Z,62.95
2019-02-06T19:13:37.938Z,69.62
2019-02-06T19:16:06.511Z,77.08
2019-02-06T19:18:37.203Z,71.97
2019-02-06T19:21:05.860Z,73.35
2019-02-06T19:23:34.926Z,65.95
2019-02-06T19:26:04.042Z,54.55
2019-02-06T19:28:32.578Z,55.67
2019-02-06T19:31:01.174Z,55.10
2019-02-06T19:33:29.757Z,57.67
2019-02-06T19:35:58.649Z,58.60
2019-02-06T19:38:27.222Z,57.10
2019-02-06T19:40:56.462Z,63.40
2019-02-06T19:43:25.022Z,57.90
2019-02-06T19:45:53.945Z,55.00
2019-02-06T19:48:22.538Z,54.55
2019-02-06T19:50:51.651Z,56.42
2019-02-06T19:53:21.072Z,63.13
2019-02-06T19:55:50.180Z,54.95
2019-02-06T19:58:19.227Z,59.60
2019-02-06T20:00:48.262Z,55.43
2019-02-06T20:03:16.866Z,58.42
2019-02-06T20:05:45.442Z,53.65
2019-02-06T20:08:14.489Z,60.40
2019-02-06T20:10:45.546Z,59.77
2019-02-06T20:13:14.806Z,56.65
2019-02-06T20:15:43.461Z,60.38
2019-02-06T20:18:12.798Z,57.00
2019-02-06T20:20:41.691Z,55.70
2019-02-06T20:23:10.254Z,52.15
2019-02-06T20:25:39.159Z,60.05
2019-02-06T20:28:07.722Z,59.83
2019-02-06T20:30:36.825Z,51.00
2019-02-06T20:33:06.149Z,59.23
2019-02-06T20:35:35.210Z,58.73
2019-02-06T20:38:03.800Z,53.90
2019-02-06T20:40:35.048Z,55.98
2019-02-06T20:43:03.968Z,57.43
2019-02-06T20:45:32.664Z,56.48
2019-02-06T20:48:01.620Z,51.50
2019-02-06T20:50:31.706Z,52.23
2019-02-06T20:53:00.968Z,54.35
2019-02-06T20:55:29.715Z,52.60
2019-02-06T20:57:58.304Z,52.62
2019-02-06T21:00:29.091Z,52.95
2019-02-06T21:02:57.638Z,55.80
2019-02-06T21:05:26.207Z,55.80
2019-02-06T21:07:55.452Z,55.00
2019-02-06T21:10:25.679Z,56.00
2019-02-06T21:12:54.854Z,53.10
2019-02-06T21:15:23.403Z,50.92
2019-02-06T21:17:58.363Z,54.50
2019-02-06T21:20:27.019Z,54.03
2019-02-06T21:22:55.955Z,52.98
2019-02-06T21:25:25.146Z,53.75
2019-02-06T21:27:53.704Z,54.63
2019-02-06T21:30:24.607Z,56.25
2019-02-06T21:32:53.567Z,53.78
2019-02-06T21:35:22.190Z,54.67
2019-02-06T21:37:51.048Z,67.62
2019-02-06T21:40:22.488Z,59.42
2019-02-06T21:42:51.315Z,57.62
2019-02-06T21:45:19.974Z,51.45
2019-02-06T21:47:48.999Z,56.37
2019-02-06T21:50:18.979Z,65.35
2019-02-06T21:52:48.072Z,55.95
2019-02-06T21:55:17.858Z,56.42
2019-02-06T21:57:46.988Z,56.30
2019-02-06T22:00:20.819Z,57.08
2019-02-06T22:02:49.493Z,57.05
2019-02-06T22:05:18.580Z,57.17
2019-02-06T22:07:47.414Z,52.78
2019-02-06T22:10:16.382Z,49.53
2019-02-06T22:12:44.994Z,61.75
2019-02-06T22:15:16.412Z,55.40
2019-02-06T22:17:45.340Z,60.65
2019-02-06T22:20:13.967Z,53.85
2019-02-06T22:22:43.571Z,51.83
2019-02-06T22:25:12.122Z,57.75
2019-02-06T22:27:41.351Z,52.62
2019-02-06T22:30:21.245Z,52.95
2019-02-06T22:32:49.942Z,47.10
2019-02-06T22:35:18.546Z,49.23
2019-02-06T22:37:47.124Z,48.55
2019-02-06T22:40:17.417Z,52.95
2019-02-06T22:42:46.071Z,51.58
2019-02-06T22:45:19.194Z,49.70
2019-02-06T22:47:48.148Z,46.80
2019-02-06T22:50:18.807Z,47.55
2019-02-06T22:52:47.758Z,53.75
2019-02-06T22:55:16.668Z,51.63
2019-02-06T22:57:45.263Z,50.90
2019-02-06T23:00:53.362Z,51.90
2019-02-06T23:03:42.359Z,46.83
2019-02-06T23:06:30.202Z,51.23
2019-02-06T23:09:18.282Z,50.28
2019-02-06T23:12:06.348Z,58.08
2019-02-06T23:14:54.178Z,52.25
2019-02-06T23:17:42.014Z,49.93
2019-02-06T23:20:31.578Z,50.83
2019-02-06T23:23:19.414Z,54.03
2019-02-06T23:26:07.499Z,55.98
2019-02-06T23:28:55.330Z,57.60
2019-02-06T23:31:43.421Z,57.23
2019-02-06T23:34:31.731Z,54.90
2019-02-06T23:37:19.575Z,53.23
2019-02-06T23:40:08.790Z,59.27
2019-02-06T23:42:56.683Z,59.05
2019-02-06T23:45:46.194Z,56.15
2019-02-06T23:48:41.659Z,52.03
2019-02-06T23:51:31.458Z,56.77
2019-02-06T23:54:12.247Z,52.55
2019-02-06T23:56:53.142Z,50.73
2019-02-06T23:59:33.611Z,50.30
